sensor_id;sensor_type;location;lat;lon;timestamp;P1;durP1;ratioP1;P2;durP2;ratioP2
58123;SDS011;46725;48.068;20.832;2023-02-15T00:00:13;71.63;;;32.88;;
58123;SDS011;46725;48.068;20.832;2023-02-15T00:02:40;67.95;;;32.58;;
58123;SDS011;46725;48.068;20.832;2023-02-15T00:05:06;70.88;;;33.78;;
58123;SDS011;46725;48.068;20.832;2023-02-15T00:07:32;77.28;;;36.30;;
58123;SDS011;46725;48.068;20.832;2023-02-15T00:09:58;72.85;;;34.83;;
58123;SDS011;46725;48.068;20.832;2023-02-15T00:12:25;77.32;;;35.35;;
58123;SDS011;46725;48.068;20.832;2023-02-15T00:14:51;77.90;;;35.17;;
58123;SDS011;46725;48.068;20.832;2023-02-15T00:17:17;87.47;;;37.60;;
58123;SDS011;46725;48.068;20.832;2023-02-15T00:19:43;79.50;;;37.97;;
58123;SDS011;46725;48.068;20.832;2023-02-15T00:22:09;95.95;;;42.78;;
58123;SDS011;46725;48.068;20.832;2023-02-15T00:24:35;96.45;;;43.00;;
58123;SDS011;46725;48.068;20.832;2023-02-15T00:27:01;100.57;;;42.92;;
58123;SDS011;46725;48.068;20.832;2023-02-15T00:29:27;112.97;;;44.40;;
58123;SDS011;46725;48.068;20.832;2023-02-15T00:31:53;95.03;;;43.38;;
58123;SDS011;46725;48.068;20.832;2023-02-15T00:34:20;101.15;;;43.92;;
58123;SDS011;46725;48.068;20.832;2023-02-15T00:36:47;91.18;;;42.35;;
58123;SDS011;46725;48.068;20.832;2023-02-15T00:39:13;101.97;;;42.65;;
58123;SDS011;46725;48.068;20.832;2023-02-15T00:41:39;86.43;;;40.20;;
58123;SDS011;46725;48.068;20.832;2023-02-15T00:44:05;78.95;;;36.00;;
58123;SDS011;46725;48.068;20.832;2023-02-15T00:46:32;71.35;;;34.67;;
58123;SDS011;46725;48.068;20.832;2023-02-15T00:48:58;89.80;;;36.72;;
58123;SDS011;46725;48.068;20.832;2023-02-15T00:51:24;71.72;;;34.45;;
58123;SDS011;46725;48.068;20.832;2023-02-15T00:53:51;75.03;;;33.08;;
58123;SDS011;46725;48.068;20.832;2023-02-15T00:56:17;82.65;;;35.13;;
58123;SDS011;46725;48.068;20.832;2023-02-15T00:58:43;77.35;;;34.90;;
58123;SDS011;46725;48.068;20.832;2023-02-15T01:01:10;69.78;;;32.45;;
58123;SDS011;46725;48.068;20.832;2023-02-15T01:03:36;68.82;;;31.15;;
58123;SDS011;46725;48.068;20.832;2023-02-15T01:06:02;70.25;;;32.80;;
58123;SDS011;46725;48.068;20.832;2023-02-15T01:08:29;66.43;;;31.05;;
58123;SDS011;46725;48.068;20.832;2023-02-15T01:10:55;62.67;;;29.75;;
58123;SDS011;46725;48.068;20.832;2023-02-15T01:13:21;63.72;;;31.40;;
58123;SDS011;46725;48.068;20.832;2023-02-15T01:15:54;61.22;;;30.73;;
58123;SDS011;46725;48.068;20.832;2023-02-15T01:18:20;65.03;;;30.35;;
58123;SDS011;46725;48.068;20.832;2023-02-15T01:20:47;69.72;;;33.40;;
58123;SDS011;46725;48.068;20.832;2023-02-15T01:23:13;67.55;;;31.52;;
58123;SDS011;46725;48.068;20.832;2023-02-15T01:25:39;75.18;;;34.65;;
58123;SDS011;46725;48.068;20.832;2023-02-15T01:28:05;78.85;;;34.92;;
58123;SDS011;46725;48.068;20.832;2023-02-15T01:30:32;81.13;;;35.60;;
58123;SDS011;46725;48.068;20.832;2023-02-15T01:32:58;76.50;;;35.63;;
58123;SDS011;46725;48.068;20.832;2023-02-15T01:35:26;76.07;;;35.85;;
58123;SDS011;46725;48.068;20.832;2023-02-15T01:37:52;84.60;;;36.45;;
58123;SDS011;46725;48.068;20.832;2023-02-15T01:40:18;86.03;;;38.63;;
58123;SDS011;46725;48.068;20.832;2023-02-15T01:42:44;81.13;;;37.28;;
58123;SDS011;46725;48.068;20.832;2023-02-15T01:47:52;85.05;;;38.63;;
58123;SDS011;46725;48.068;20.832;2023-02-15T01:50:30;83.75;;;39.78;;
58123;SDS011;46725;48.068;20.832;2023-02-15T01:53:03;86.40;;;40.08;;
58123;SDS011;46725;48.068;20.832;2023-02-15T01:55:39;89.63;;;42.60;;
58123;SDS011;46725;48.068;20.832;2023-02-15T01:58:05;87.15;;;41.92;;
58123;SDS011;46725;48.068;20.832;2023-02-15T02:00:32;91.50;;;41.47;;
58123;SDS011;46725;48.068;20.832;2023-02-15T02:02:59;87.78;;;40.50;;
58123;SDS011;46725;48.068;20.832;2023-02-15T02:05:25;87.18;;;40.58;;
58123;SDS011;46725;48.068;20.832;2023-02-15T02:07:52;87.90;;;42.75;;
58123;SDS011;46725;48.068;20.832;2023-02-15T02:10:21;90.45;;;42.35;;
58123;SDS011;46725;48.068;20.832;2023-02-15T02:12:48;91.20;;;41.50;;
58123;SDS011;46725;48.068;20.832;2023-02-15T02:15:15;92.60;;;41.90;;
58123;SDS011;46725;48.068;20.832;2023-02-15T02:33:14;64.53;;;29.90;;
58123;SDS011;46725;48.068;20.832;2023-02-15T02:38:20;77.32;;;35.30;;
58123;SDS011;46725;48.068;20.832;2023-02-15T02:43:25;83.03;;;36.88;;
58123;SDS011;46725;48.068;20.832;2023-02-15T02:45:58;76.57;;;36.10;;
58123;SDS011;46725;48.068;20.832;2023-02-15T02:48:26;78.65;;;34.78;;
58123;SDS011;46725;48.068;20.832;2023-02-15T02:50:53;70.40;;;34.35;;
58123;SDS011;46725;48.068;20.832;2023-02-15T02:53:19;77.30;;;35.90;;
58123;SDS011;46725;48.068;20.832;2023-02-15T02:58:22;81.90;;;34.55;;
58123;SDS011;46725;48.068;20.832;2023-02-15T03:03:19;85.70;;;36.10;;
58123;SDS011;46725;48.068;20.832;2023-02-15T03:05:47;76.78;;;34.67;;
58123;SDS011;46725;48.068;20.832;2023-02-15T03:08:14;71.53;;;33.40;;
58123;SDS011;46725;48.068;20.832;2023-02-15T03:10:46;73.88;;;32.58;;
58123;SDS011;46725;48.068;20.832;2023-02-15T03:13:13;75.40;;;33.47;;
58123;SDS011;46725;48.068;20.832;2023-02-15T03:15:40;74.43;;;34.42;;
58123;SDS011;46725;48.068;20.832;2023-02-15T03:18:28;80.47;;;34.67;;
58123;SDS011;46725;48.068;20.832;2023-02-15T03:20:55;76.78;;;36.00;;
58123;SDS011;46725;48.068;20.832;2023-02-15T03:23:22;80.78;;;37.38;;
58123;SDS011;46725;48.068;20.832;2023-02-15T03:25:52;86.28;;;37.63;;
58123;SDS011;46725;48.068;20.832;2023-02-15T03:28:20;93.40;;;40.63;;
58123;SDS011;46725;48.068;20.832;2023-02-15T03:30:48;88.30;;;37.38;;
58123;SDS011;46725;48.068;20.832;2023-02-15T03:33:17;77.10;;;38.15;;
58123;SDS011;46725;48.068;20.832;2023-02-15T03:35:46;69.38;;;33.55;;
58123;SDS011;46725;48.068;20.832;2023-02-15T03:38:16;81.18;;;33.65;;
58123;SDS011;46725;48.068;20.832;2023-02-15T03:40:45;67.47;;;30.08;;
58123;SDS011;46725;48.068;20.832;2023-02-15T03:46:08;68.53;;;29.67;;
58123;SDS011;46725;48.068;20.832;2023-02-15T03:48:39;67.80;;;29.27;;
58123;SDS011;46725;48.068;20.832;2023-02-15T03:51:08;63.40;;;31.80;;
58123;SDS011;46725;48.068;20.832;2023-02-15T03:53:53;66.32;;;29.77;;
58123;SDS011;46725;48.068;20.832;2023-02-15T03:56:20;66.68;;;33.17;;
58123;SDS011;46725;48.068;20.832;2023-02-15T03:58:46;60.88;;;30.42;;
58123;SDS011;46725;48.068;20.832;2023-02-15T04:01:38;68.68;;;30.80;;
58123;SDS011;46725;48.068;20.832;2023-02-15T04:04:16;69.80;;;31.52;;
58123;SDS011;46725;48.068;20.832;2023-02-15T04:06:43;62.08;;;30.67;;
58123;SDS011;46725;48.068;20.832;2023-02-15T04:09:09;62.70;;;30.67;;
58123;SDS011;46725;48.068;20.832;2023-02-15T04:11:54;72.97;;;33.13;;
58123;SDS011;46725;48.068;20.832;2023-02-15T04:14:20;66.50;;;30.65;;
58123;SDS011;46725;48.068;20.832;2023-02-15T04:17:06;63.88;;;30.25;;
58123;SDS011;46725;48.068;20.832;2023-02-15T04:19:32;63.92;;;30.27;;
58123;SDS011;46725;48.068;20.832;2023-02-15T04:22:17;72.90;;;33.70;;
58123;SDS011;46725;48.068;20.832;2023-02-15T04:25:01;72.05;;;32.70;;
58123;SDS011;46725;48.068;20.832;2023-02-15T04:27:37;71.93;;;31.88;;
58123;SDS011;46725;48.068;20.832;2023-02-15T04:30:03;79.43;;;33.78;;
58123;SDS011;46725;48.068;20.832;2023-02-15T04:32:30;66.78;;;31.13;;
58123;SDS011;46725;48.068;20.832;2023-02-15T04:34:56;68.95;;;32.53;;
58123;SDS011;46725;48.068;20.832;2023-02-15T04:37:22;68.28;;;33.72;;
58123;SDS011;46725;48.068;20.832;2023-02-15T04:39:48;69.93;;;34.63;;
58123;SDS011;46725;48.068;20.832;2023-02-15T04:42:15;62.40;;;32.33;;
58123;SDS011;46725;48.068;20.832;2023-02-15T04:44:41;75.95;;;33.33;;
58123;SDS011;46725;48.068;20.832;2023-02-15T04:47:07;74.93;;;35.35;;
58123;SDS011;46725;48.068;20.832;2023-02-15T04:49:33;79.38;;;39.10;;
58123;SDS011;46725;48.068;20.832;2023-02-15T04:51:59;77.03;;;35.75;;
58123;SDS011;46725;48.068;20.832;2023-02-15T04:54:25;75.53;;;36.13;;
58123;SDS011;46725;48.068;20.832;2023-02-15T04:56:51;82.72;;;35.28;;
58123;SDS011;46725;48.068;20.832;2023-02-15T04:59:17;74.95;;;35.40;;
58123;SDS011;46725;48.068;20.832;2023-02-15T05:01:43;73.40;;;33.85;;
58123;SDS011;46725;48.068;20.832;2023-02-15T05:04:10;72.70;;;35.08;;
58123;SDS011;46725;48.068;20.832;2023-02-15T05:06:36;76.93;;;35.42;;
58123;SDS011;46725;48.068;20.832;2023-02-15T05:09:02;83.82;;;37.67;;
58123;SDS011;46725;48.068;20.832;2023-02-15T05:11:28;88.18;;;38.03;;
58123;SDS011;46725;48.068;20.832;2023-02-15T05:13:54;72.75;;;34.85;;
58123;SDS011;46725;48.068;20.832;2023-02-15T05:16:20;80.47;;;37.42;;
58123;SDS011;46725;48.068;20.832;2023-02-15T05:18:46;77.80;;;32.92;;
58123;SDS011;46725;48.068;20.832;2023-02-15T05:21:12;75.95;;;34.67;;
58123;SDS011;46725;48.068;20.832;2023-02-15T05:23:38;78.25;;;34.70;;
58123;SDS011;46725;48.068;20.832;2023-02-15T05:26:04;87.38;;;37.55;;
58123;SDS011;46725;48.068;20.832;2023-02-15T05:28:49;77.93;;;36.95;;
58123;SDS011;46725;48.068;20.832;2023-02-15T05:31:18;76.75;;;36.40;;
58123;SDS011;46725;48.068;20.832;2023-02-15T05:33:44;81.30;;;35.30;;
58123;SDS011;46725;48.068;20.832;2023-02-15T05:36:11;76.82;;;36.72;;
58123;SDS011;46725;48.068;20.832;2023-02-15T05:38:37;73.50;;;35.05;;
58123;SDS011;46725;48.068;20.832;2023-02-15T05:41:04;84.13;;;39.42;;
58123;SDS011;46725;48.068;20.832;2023-02-15T05:43:30;87.63;;;40.00;;
58123;SDS011;46725;48.068;20.832;2023-02-15T05:45:57;83.72;;;38.72;;
58123;SDS011;46725;48.068;20.832;2023-02-15T05:48:23;95.50;;;40.58;;
58123;SDS011;46725;48.068;20.832;2023-02-15T05:50:57;91.82;;;41.50;;
58123;SDS011;46725;48.068;20.832;2023-02-15T05:53:24;88.28;;;40.67;;
58123;SDS011;46725;48.068;20.832;2023-02-15T05:55:50;95.70;;;43.75;;
58123;SDS011;46725;48.068;20.832;2023-02-15T05:58:16;95.25;;;42.17;;
58123;SDS011;46725;48.068;20.832;2023-02-15T06:00:42;93.35;;;43.17;;
58123;SDS011;46725;48.068;20.832;2023-02-15T06:03:08;96.78;;;42.88;;
58123;SDS011;46725;48.068;20.832;2023-02-15T06:05:34;101.97;;;47.40;;
58123;SDS011;46725;48.068;20.832;2023-02-15T06:08:00;89.93;;;43.25;;
58123;SDS011;46725;48.068;20.832;2023-02-15T06:10:26;94.55;;;45.15;;
58123;SDS011;46725;48.068;20.832;2023-02-15T06:12:52;97.30;;;45.03;;
58123;SDS011;46725;48.068;20.832;2023-02-15T06:15:18;99.38;;;44.83;;
58123;SDS011;46725;48.068;20.832;2023-02-15T06:17:44;94.55;;;43.38;;
58123;SDS011;46725;48.068;20.832;2023-02-15T06:20:11;93.45;;;44.55;;
58123;SDS011;46725;48.068;20.832;2023-02-15T06:22:37;98.75;;;45.10;;
58123;SDS011;46725;48.068;20.832;2023-02-15T06:25:03;97.47;;;42.33;;
58123;SDS011;46725;48.068;20.832;2023-02-15T06:27:29;100.32;;;45.15;;
58123;SDS011;46725;48.068;20.832;2023-02-15T06:29:55;98.60;;;45.95;;
58123;SDS011;46725;48.068;20.832;2023-02-15T06:32:21;87.65;;;43.80;;
58123;SDS011;46725;48.068;20.832;2023-02-15T06:34:47;97.85;;;44.67;;
58123;SDS011;46725;48.068;20.832;2023-02-15T06:37:13;98.35;;;45.80;;
58123;SDS011;46725;48.068;20.832;2023-02-15T06:39:39;103.32;;;44.72;;
58123;SDS011;46725;48.068;20.832;2023-02-15T06:42:05;96.55;;;47.80;;
58123;SDS011;46725;48.068;20.832;2023-02-15T06:44:31;99.78;;;46.97;;
58123;SDS011;46725;48.068;20.832;2023-02-15T06:46:57;107.15;;;47.15;;
58123;SDS011;46725;48.068;20.832;2023-02-15T06:49:24;89.78;;;47.55;;
58123;SDS011;46725;48.068;20.832;2023-02-15T06:51:50;99.93;;;48.08;;
58123;SDS011;46725;48.068;20.832;2023-02-15T06:54:16;89.90;;;44.38;;
58123;SDS011;46725;48.068;20.832;2023-02-15T06:56:42;93.40;;;45.65;;
58123;SDS011;46725;48.068;20.832;2023-02-15T06:59:08;87.43;;;45.17;;
58123;SDS011;46725;48.068;20.832;2023-02-15T07:01:34;96.70;;;44.63;;
58123;SDS011;46725;48.068;20.832;2023-02-15T07:04:02;94.38;;;45.97;;
58123;SDS011;46725;48.068;20.832;2023-02-15T07:06:30;89.80;;;41.03;;
58123;SDS011;46725;48.068;20.832;2023-02-15T07:08:57;89.13;;;42.80;;
58123;SDS011;46725;48.068;20.832;2023-02-15T07:11:23;91.38;;;43.45;;
58123;SDS011;46725;48.068;20.832;2023-02-15T07:14:08;86.00;;;42.45;;
58123;SDS011;46725;48.068;20.832;2023-02-15T07:16:34;88.47;;;44.92;;
58123;SDS011;46725;48.068;20.832;2023-02-15T07:19:01;92.43;;;43.25;;
58123;SDS011;46725;48.068;20.832;2023-02-15T07:21:27;84.47;;;41.42;;
58123;SDS011;46725;48.068;20.832;2023-02-15T07:23:55;95.00;;;43.75;;
58123;SDS011;46725;48.068;20.832;2023-02-15T07:26:21;84.53;;;44.28;;
58123;SDS011;46725;48.068;20.832;2023-02-15T07:28:47;85.53;;;42.70;;
58123;SDS011;46725;48.068;20.832;2023-02-15T07:31:14;87.47;;;42.10;;
58123;SDS011;46725;48.068;20.832;2023-02-15T07:33:40;88.82;;;42.22;;
58123;SDS011;46725;48.068;20.832;2023-02-15T07:36:06;79.70;;;39.17;;
58123;SDS011;46725;48.068;20.832;2023-02-15T07:38:37;86.05;;;41.85;;
58123;SDS011;46725;48.068;20.832;2023-02-15T07:41:05;81.32;;;39.83;;
58123;SDS011;46725;48.068;20.832;2023-02-15T07:43:32;87.20;;;41.95;;
58123;SDS011;46725;48.068;20.832;2023-02-15T07:45:59;85.07;;;42.47;;
58123;SDS011;46725;48.068;20.832;2023-02-15T07:48:26;82.00;;;39.90;;
58123;SDS011;46725;48.068;20.832;2023-02-15T07:50:52;85.93;;;42.08;;
58123;SDS011;46725;48.068;20.832;2023-02-15T07:53:18;86.90;;;41.00;;
58123;SDS011;46725;48.068;20.832;2023-02-15T07:55:44;82.53;;;41.80;;
58123;SDS011;46725;48.068;20.832;2023-02-15T07:58:10;95.72;;;45.65;;
58123;SDS011;46725;48.068;20.832;2023-02-15T08:00:36;90.00;;;44.42;;
58123;SDS011;46725;48.068;20.832;2023-02-15T08:03:23;90.20;;;43.08;;
58123;SDS011;46725;48.068;20.832;2023-02-15T08:05:54;93.40;;;44.55;;
58123;SDS011;46725;48.068;20.832;2023-02-15T08:08:20;85.47;;;42.40;;
58123;SDS011;46725;48.068;20.832;2023-02-15T08:11:06;89.15;;;43.58;;
58123;SDS011;46725;48.068;20.832;2023-02-15T08:13:51;87.50;;;42.50;;
58123;SDS011;46725;48.068;20.832;2023-02-15T08:18:47;84.57;;;42.13;;
58123;SDS011;46725;48.068;20.832;2023-02-15T08:21:13;85.28;;;42.08;;
58123;SDS011;46725;48.068;20.832;2023-02-15T08:23:39;80.63;;;41.80;;
58123;SDS011;46725;48.068;20.832;2023-02-15T08:26:05;85.38;;;42.35;;
58123;SDS011;46725;48.068;20.832;2023-02-15T08:28:31;82.15;;;41.45;;
58123;SDS011;46725;48.068;20.832;2023-02-15T08:31:07;79.43;;;38.90;;
58123;SDS011;46725;48.068;20.832;2023-02-15T08:33:34;72.95;;;37.25;;
58123;SDS011;46725;48.068;20.832;2023-02-15T08:36:11;69.75;;;37.33;;
58123;SDS011;46725;48.068;20.832;2023-02-15T08:38:37;77.18;;;37.45;;
58123;SDS011;46725;48.068;20.832;2023-02-15T08:41:25;71.25;;;36.08;;
58123;SDS011;46725;48.068;20.832;2023-02-15T08:43:54;68.50;;;31.98;;
58123;SDS011;46725;48.068;20.832;2023-02-15T08:46:21;65.15;;;32.50;;
58123;SDS011;46725;48.068;20.832;2023-02-15T08:48:48;63.13;;;33.45;;
58123;SDS011;46725;48.068;20.832;2023-02-15T08:51:15;66.55;;;32.70;;
58123;SDS011;46725;48.068;20.832;2023-02-15T08:53:43;57.75;;;30.42;;
58123;SDS011;46725;48.068;20.832;2023-02-15T08:56:10;60.88;;;29.05;;
58123;SDS011;46725;48.068;20.832;2023-02-15T08:58:37;56.38;;;29.80;;
58123;SDS011;46725;48.068;20.832;2023-02-15T09:01:10;58.75;;;32.10;;
58123;SDS011;46725;48.068;20.832;2023-02-15T09:03:37;68.05;;;30.02;;
58123;SDS011;46725;48.068;20.832;2023-02-15T09:06:03;65.55;;;28.52;;
58123;SDS011;46725;48.068;20.832;2023-02-15T09:08:29;58.25;;;28.38;;
58123;SDS011;46725;48.068;20.832;2023-02-15T09:11:04;52.20;;;26.52;;
58123;SDS011;46725;48.068;20.832;2023-02-15T09:13:30;50.25;;;26.33;;
58123;SDS011;46725;48.068;20.832;2023-02-15T09:16:03;51.90;;;25.90;;
58123;SDS011;46725;48.068;20.832;2023-02-15T09:18:30;52.97;;;26.63;;
58123;SDS011;46725;48.068;20.832;2023-02-15T09:20:56;53.17;;;26.73;;
58123;SDS011;46725;48.068;20.832;2023-02-15T09:23:22;50.03;;;26.92;;
58123;SDS011;46725;48.068;20.832;2023-02-15T09:25:49;53.97;;;29.10;;
58123;SDS011;46725;48.068;20.832;2023-02-15T09:28:15;53.60;;;25.45;;
58123;SDS011;46725;48.068;20.832;2023-02-15T09:30:41;48.42;;;26.38;;
58123;SDS011;46725;48.068;20.832;2023-02-15T09:33:07;51.13;;;26.75;;
58123;SDS011;46725;48.068;20.832;2023-02-15T09:35:33;52.83;;;26.42;;
58123;SDS011;46725;48.068;20.832;2023-02-15T09:37:59;52.33;;;26.90;;
58123;SDS011;46725;48.068;20.832;2023-02-15T09:40:25;57.25;;;28.25;;
58123;SDS011;46725;48.068;20.832;2023-02-15T09:42:56;45.65;;;24.42;;
58123;SDS011;46725;48.068;20.832;2023-02-15T09:50:30;47.30;;;23.13;;
58123;SDS011;46725;48.068;20.832;2023-02-15T09:56:00;49.35;;;23.33;;
58123;SDS011;46725;48.068;20.832;2023-02-15T09:58:39;43.15;;;23.60;;
58123;SDS011;46725;48.068;20.832;2023-02-15T10:11:39;42.28;;;20.50;;
58123;SDS011;46725;48.068;20.832;2023-02-15T10:24:46;42.33;;;17.88;;
58123;SDS011;46725;48.068;20.832;2023-02-15T10:27:20;35.63;;;17.52;;
58123;SDS011;46725;48.068;20.832;2023-02-15T10:30:06;33.40;;;16.75;;
58123;SDS011;46725;48.068;20.832;2023-02-15T10:32:37;33.67;;;16.42;;
58123;SDS011;46725;48.068;20.832;2023-02-15T10:35:15;34.65;;;17.50;;
58123;SDS011;46725;48.068;20.832;2023-02-15T10:43:28;32.42;;;16.85;;
58123;SDS011;46725;48.068;20.832;2023-02-15T10:46:13;34.92;;;16.73;;
58123;SDS011;46725;48.068;20.832;2023-02-15T10:51:38;34.15;;;17.40;;
58123;SDS011;46725;48.068;20.832;2023-02-15T10:54:24;34.15;;;17.98;;
58123;SDS011;46725;48.068;20.832;2023-02-15T11:00:05;32.22;;;17.05;;
58123;SDS011;46725;48.068;20.832;2023-02-15T11:07:54;36.90;;;19.20;;
58123;SDS011;46725;48.068;20.832;2023-02-15T11:12:57;36.63;;;19.10;;
58123;SDS011;46725;48.068;20.832;2023-02-15T11:18:05;36.85;;;20.58;;
58123;SDS011;46725;48.068;20.832;2023-02-15T11:20:41;38.08;;;21.50;;
58123;SDS011;46725;48.068;20.832;2023-02-15T11:23:12;40.95;;;20.77;;
58123;SDS011;46725;48.068;20.832;2023-02-15T11:25:44;34.95;;;19.73;;
58123;SDS011;46725;48.068;20.832;2023-02-15T11:28:22;35.65;;;20.02;;
58123;SDS011;46725;48.068;20.832;2023-02-15T11:30:51;39.85;;;20.65;;
58123;SDS011;46725;48.068;20.832;2023-02-15T11:33:21;39.25;;;20.45;;
58123;SDS011;46725;48.068;20.832;2023-02-15T11:38:16;39.25;;;20.40;;
58123;SDS011;46725;48.068;20.832;2023-02-15T11:45:45;38.65;;;21.77;;
58123;SDS011;46725;48.068;20.832;2023-02-15T11:48:12;43.22;;;21.30;;
58123;SDS011;46725;48.068;20.832;2023-02-15T11:50:39;37.28;;;20.30;;
58123;SDS011;46725;48.068;20.832;2023-02-15T11:53:15;39.88;;;21.85;;
58123;SDS011;46725;48.068;20.832;2023-02-15T11:55:45;39.55;;;21.58;;
58123;SDS011;46725;48.068;20.832;2023-02-15T12:01:01;40.33;;;21.48;;
58123;SDS011;46725;48.068;20.832;2023-02-15T12:03:39;43.38;;;22.95;;
58123;SDS011;46725;48.068;20.832;2023-02-15T12:06:11;40.40;;;21.70;;
58123;SDS011;46725;48.068;20.832;2023-02-15T12:08:40;43.22;;;23.27;;
58123;SDS011;46725;48.068;20.832;2023-02-15T12:11:12;36.40;;;19.70;;
58123;SDS011;46725;48.068;20.832;2023-02-15T12:13:54;43.88;;;21.90;;
58123;SDS011;46725;48.068;20.832;2023-02-15T12:16:21;37.17;;;19.73;;
58123;SDS011;46725;48.068;20.832;2023-02-15T12:18:47;37.75;;;19.83;;
58123;SDS011;46725;48.068;20.832;2023-02-15T12:21:27;39.70;;;18.83;;
58123;SDS011;46725;48.068;20.832;2023-02-15T12:23:56;35.80;;;19.15;;
58123;SDS011;46725;48.068;20.832;2023-02-15T12:26:24;43.78;;;22.13;;
58123;SDS011;46725;48.068;20.832;2023-02-15T12:28:51;36.40;;;21.00;;
58123;SDS011;46725;48.068;20.832;2023-02-15T12:33:45;35.25;;;19.33;;
58123;SDS011;46725;48.068;20.832;2023-02-15T12:36:18;39.58;;;19.77;;
58123;SDS011;46725;48.068;20.832;2023-02-15T12:39:16;37.67;;;20.38;;
58123;SDS011;46725;48.068;20.832;2023-02-15T12:41:31;35.20;;;18.88;;
58123;SDS011;46725;48.068;20.832;2023-02-15T12:44:15;35.17;;;18.83;;
58123;SDS011;46725;48.068;20.832;2023-02-15T12:46:54;36.00;;;18.08;;
58123;SDS011;46725;48.068;20.832;2023-02-15T12:49:21;38.47;;;19.25;;
58123;SDS011;46725;48.068;20.832;2023-02-15T12:51:51;39.88;;;19.00;;
58123;SDS011;46725;48.068;20.832;2023-02-15T12:54:28;37.40;;;19.98;;
58123;SDS011;46725;48.068;20.832;2023-02-15T12:56:55;36.40;;;19.80;;
58123;SDS011;46725;48.068;20.832;2023-02-15T12:59:22;38.30;;;19.35;;
58123;SDS011;46725;48.068;20.832;2023-02-15T13:01:49;38.28;;;19.23;;
58123;SDS011;46725;48.068;20.832;2023-02-15T13:04:25;36.58;;;18.85;;
58123;SDS011;46725;48.068;20.832;2023-02-15T13:06:53;36.30;;;19.13;;
58123;SDS011;46725;48.068;20.832;2023-02-15T13:09:24;39.88;;;19.08;;
58123;SDS011;46725;48.068;20.832;2023-02-15T13:11:52;35.50;;;19.25;;
58123;SDS011;46725;48.068;20.832;2023-02-15T13:14:25;39.13;;;20.10;;
58123;SDS011;46725;48.068;20.832;2023-02-15T13:16:56;39.03;;;20.83;;
58123;SDS011;46725;48.068;20.832;2023-02-15T13:19:29;38.65;;;19.88;;
58123;SDS011;46725;48.068;20.832;2023-02-15T13:21:57;41.38;;;19.35;;
58123;SDS011;46725;48.068;20.832;2023-02-15T13:26:49;39.78;;;20.63;;
58123;SDS011;46725;48.068;20.832;2023-02-15T13:29:29;39.33;;;20.25;;
58123;SDS011;46725;48.068;20.832;2023-02-15T13:31:57;39.25;;;20.27;;
58123;SDS011;46725;48.068;20.832;2023-02-15T13:42:01;43.08;;;19.25;;
58123;SDS011;46725;48.068;20.832;2023-02-15T13:52:22;38.85;;;20.20;;
58123;SDS011;46725;48.068;20.832;2023-02-15T13:57:34;40.38;;;21.27;;
58123;SDS011;46725;48.068;20.832;2023-02-15T14:00:14;35.35;;;18.63;;
58123;SDS011;46725;48.068;20.832;2023-02-15T14:02:47;36.50;;;18.45;;
58123;SDS011;46725;48.068;20.832;2023-02-15T14:11:09;43.35;;;19.75;;
58123;SDS011;46725;48.068;20.832;2023-02-15T14:16:20;43.13;;;22.20;;
58123;SDS011;46725;48.068;20.832;2023-02-15T14:18:58;48.13;;;23.55;;
58123;SDS011;46725;48.068;20.832;2023-02-15T14:31:35;52.22;;;26.02;;
58123;SDS011;46725;48.068;20.832;2023-02-15T14:34:04;47.20;;;22.30;;
58123;SDS011;46725;48.068;20.832;2023-02-15T14:36:31;52.20;;;24.33;;
58123;SDS011;46725;48.068;20.832;2023-02-15T14:48:46;43.92;;;21.08;;
58123;SDS011;46725;48.068;20.832;2023-02-15T14:54:54;36.17;;;19.42;;
58123;SDS011;46725;48.068;20.832;2023-02-15T15:02:18;39.70;;;18.88;;
58123;SDS011;46725;48.068;20.832;2023-02-15T15:04:55;38.55;;;20.95;;
58123;SDS011;46725;48.068;20.832;2023-02-15T15:07:26;44.83;;;23.10;;
58123;SDS011;46725;48.068;20.832;2023-02-15T15:14:57;39.45;;;20.90;;
58123;SDS011;46725;48.068;20.832;2023-02-15T15:20:12;42.58;;;22.85;;
58123;SDS011;46725;48.068;20.832;2023-02-15T15:22:41;41.28;;;19.50;;
58123;SDS011;46725;48.068;20.832;2023-02-15T15:27:53;40.15;;;21.15;;
58123;SDS011;46725;48.068;20.832;2023-02-15T15:43:19;39.88;;;20.88;;
58123;SDS011;46725;48.068;20.832;2023-02-15T15:48:40;42.25;;;22.60;;
58123;SDS011;46725;48.068;20.832;2023-02-15T15:53:43;49.47;;;22.63;;
58123;SDS011;46725;48.068;20.832;2023-02-15T15:56:13;45.72;;;22.15;;
58123;SDS011;46725;48.068;20.832;2023-02-15T15:59:14;51.95;;;25.23;;
58123;SDS011;46725;48.068;20.832;2023-02-15T16:01:37;47.00;;;23.02;;
58123;SDS011;46725;48.068;20.832;2023-02-15T16:04:05;44.83;;;22.60;;
58123;SDS011;46725;48.068;20.832;2023-02-15T16:06:33;50.28;;;24.60;;
58123;SDS011;46725;48.068;20.832;2023-02-15T16:11:41;50.75;;;27.33;;
58123;SDS011;46725;48.068;20.832;2023-02-15T16:14:21;53.83;;;28.48;;
58123;SDS011;46725;48.068;20.832;2023-02-15T16:16:49;51.78;;;26.75;;
58123;SDS011;46725;48.068;20.832;2023-02-15T16:19:18;55.75;;;27.80;;
58123;SDS011;46725;48.068;20.832;2023-02-15T16:21:46;56.42;;;27.67;;
58123;SDS011;46725;48.068;20.832;2023-02-15T16:26:52;49.08;;;23.60;;
58123;SDS011;46725;48.068;20.832;2023-02-15T16:29:38;58.33;;;27.58;;
58123;SDS011;46725;48.068;20.832;2023-02-15T16:34:31;58.38;;;27.67;;
58123;SDS011;46725;48.068;20.832;2023-02-15T16:37:16;57.85;;;28.45;;
58123;SDS011;46725;48.068;20.832;2023-02-15T16:39:43;53.05;;;25.77;;
58123;SDS011;46725;48.068;20.832;2023-02-15T16:42:10;59.25;;;27.02;;
58123;SDS011;46725;48.068;20.832;2023-02-15T16:44:37;46.05;;;24.23;;
58123;SDS011;46725;48.068;20.832;2023-02-15T16:47:03;50.03;;;23.50;;
58123;SDS011;46725;48.068;20.832;2023-02-15T16:49:37;52.25;;;25.20;;
58123;SDS011;46725;48.068;20.832;2023-02-15T16:52:05;54.70;;;25.08;;
58123;SDS011;46725;48.068;20.832;2023-02-15T16:54:33;51.58;;;25.20;;
58123;SDS011;46725;48.068;20.832;2023-02-15T16:57:00;53.25;;;24.45;;
58123;SDS011;46725;48.068;20.832;2023-02-15T17:01:56;57.92;;;26.85;;
58123;SDS011;46725;48.068;20.832;2023-02-15T17:09:29;60.78;;;29.60;;
58123;SDS011;46725;48.068;20.832;2023-02-15T17:11:55;60.90;;;27.13;;
58123;SDS011;46725;48.068;20.832;2023-02-15T17:14:32;64.43;;;28.08;;
58123;SDS011;46725;48.068;20.832;2023-02-15T17:17:12;57.13;;;26.73;;
58123;SDS011;46725;48.068;20.832;2023-02-15T17:19:44;50.90;;;24.15;;
58123;SDS011;46725;48.068;20.832;2023-02-15T17:24:39;57.40;;;26.15;;
58123;SDS011;46725;48.068;20.832;2023-02-15T17:27:22;63.72;;;27.30;;
58123;SDS011;46725;48.068;20.832;2023-02-15T17:32:34;59.95;;;27.13;;
58123;SDS011;46725;48.068;20.832;2023-02-15T17:35:06;65.57;;;28.15;;
58123;SDS011;46725;48.068;20.832;2023-02-15T17:40:07;81.82;;;35.83;;
58123;SDS011;46725;48.068;20.832;2023-02-15T17:42:39;78.63;;;35.08;;
58123;SDS011;46725;48.068;20.832;2023-02-15T17:45:05;76.53;;;34.58;;
58123;SDS011;46725;48.068;20.832;2023-02-15T17:47:32;66.55;;;33.08;;